Time;durP1;ratioP1;P1;durP2;ratioP2;P2;SDS_P1;SDS_P2;PMS_P1;PMS_P2;Temp;Humidity;BMP_temperature;BMP_pressure;BME280_temperature;BME280_humidity;BME280_pressure;Samples;Min_cycle;Max_cycle;Signal;HPM_P1;HPM_P2
2023/11/13 00:02:14;;;;;;;3.80;3.50;;;11.90;70.60;;;;;;5006896;28;20186;-53
2023/11/13 00:04:40;;;;;;;3.73;3.40;;;11.90;70.90;;;;;;5008691;28;20182;-53
2023/11/13 00:07:06;;;;;;;3.77;3.47;;;11.80;71.40;;;;;;5004273;28;20186;-49
2023/11/13 00:09:32;;;;;;;5.03;3.23;;;11.90;71.00;;;;;;5007924;28;20839;-50
2023/11/13 00:11:57;;;;;;;3.83;3.53;;;11.60;71.90;;;;;;5005408;28;20769;-52
2023/11/13 00:14:23;;;;;;;3.77;3.43;;;11.70;72.00;;;;;;5005800;28;20181;-50
2023/11/13 00:16:49;;;;;;;3.70;3.33;;;11.70;72.00;;;;;;5008459;28;20209;-54
2023/11/13 00:19:16;;;;;;;3.90;3.60;;;11.80;71.80;;;;;;5009690;28;20225;-51
2023/11/13 00:21:42;;;;;;;4.90;4.07;;;11.80;72.10;;;;;;5005127;28;20189;-52
2023/11/13 00:24:08;;;;;;;4.30;4.00;;;11.80;72.20;;;;;;5002785;28;20440;-51
2023/11/13 00:26:34;;;;;;;3.97;3.67;;;11.90;72.30;;;;;;5002315;28;20923;-50
2023/11/13 00:29:01;;;;;;;5.10;4.60;;;11.90;71.70;;;;;;5003568;28;22227;-48
2023/11/13 00:31:27;;;;;;;4.70;4.30;;;11.90;71.30;;;;;;5002243;28;20281;-52
2023/11/13 00:33:53;;;;;;;4.83;4.43;;;12.00;71.70;;;;;;5002912;28;20444;-50
2023/11/13 00:36:19;;;;;;;4.70;4.20;;;11.80;71.70;;;;;;5004037;28;20483;-54
2023/11/13 00:38:44;;;;;;;5.63;5.07;;;11.80;72.40;;;;;;5005894;28;20216;-51
2023/11/13 00:41:13;;;;;;;5.83;4.97;;;11.80;73.70;;;;;;5006388;28;20205;-52
2023/11/13 00:43:39;;;;;;;5.20;4.70;;;11.80;72.90;;;;;;5008845;28;20264;-57
2023/11/13 00:46:06;;;;;;;5.00;4.50;;;11.70;71.60;;;;;;5002196;28;20531;-50
2023/11/13 00:48:32;;;;;;;5.33;4.87;;;11.20;73.40;;;;;;5006670;28;20542;-52
2023/11/13 00:50:59;;;;;;;5.93;5.27;;;11.30;74.50;;;;;;5004403;28;20464;-53
2023/11/13 00:53:25;;;;;;;5.30;4.80;;;11.30;74.00;;;;;;5008361;28;21083;-50
2023/11/13 00:55:51;;;;;;;5.40;4.90;;;11.40;73.80;;;;;;5005197;28;21106;-50
2023/11/13 00:58:17;;;;;;;5.80;5.30;;;11.40;73.70;;;;;;5004621;28;20708;-53
2023/11/13 01:00:43;;;;;;;4.80;4.40;;;11.60;73.00;;;;;;5005830;28;20452;-50
2023/11/13 01:03:09;;;;;;;5.47;4.90;;;11.70;72.30;;;;;;5005290;28;20459;-58
2023/11/13 01:05:35;;;;;;;4.60;4.20;;;11.60;72.10;;;;;;5002656;28;20248;-52
2023/11/13 01:08:02;;;;;;;5.50;4.33;;;11.40;73.50;;;;;;5005195;28;20703;-50
2023/11/13 01:10:28;;;;;;;4.37;3.97;;;11.20;74.10;;;;;;5005089;28;20460;-49
2023/11/13 01:12:53;;;;;;;4.33;3.87;;;11.10;74.70;;;;;;5006395;28;20448;-50
2023/11/13 01:15:20;;;;;;;4.50;3.70;;;11.10;75.10;;;;;;5006262;28;21121;-50
2023/11/13 01:17:45;;;;;;;4.03;3.63;;;11.10;75.70;;;;;;5003929;28;20287;-51
2023/11/13 01:20:11;;;;;;;4.30;3.90;;;11.20;75.20;;;;;;5001546;28;20574;-49
2023/11/13 01:22:37;;;;;;;4.30;3.90;;;11.40;74.70;;;;;;5004404;28;20198;-51
2023/11/13 01:25:03;;;;;;;3.93;3.63;;;11.50;74.40;;;;;;5007939;28;20189;-51
2023/11/13 01:27:28;;;;;;;3.80;3.47;;;11.60;74.00;;;;;;5006847;28;20190;-53
2023/11/13 01:29:54;;;;;;;3.80;3.50;;;11.70;73.40;;;;;;5003710;28;20530;-50
2023/11/13 01:32:20;;;;;;;3.83;3.53;;;11.80;72.90;;;;;;5005958;28;20285;-48
2023/11/13 01:34:45;;;;;;;4.07;3.67;;;11.60;73.00;;;;;;5007161;28;20264;-51
2023/11/13 01:37:13;;;;;;;3.43;3.13;;;11.70;73.30;;;;;;5006661;28;20276;-49
2023/11/13 01:39:38;;;;;;;3.87;3.57;;;11.80;72.90;;;;;;5008506;28;20643;-56
2023/11/13 01:42:05;;;;;;;3.53;3.27;;;11.80;72.90;;;;;;5007712;28;20560;-49
2023/11/13 01:44:30;;;;;;;4.33;3.90;;;11.80;73.10;;;;;;5002051;28;20692;-54
2023/11/13 01:46:56;;;;;;;4.50;4.10;;;11.70;73.70;;;;;;5002296;28;20441;-49
2023/11/13 01:49:22;;;;;;;3.90;3.50;;;11.80;73.40;;;;;;5001521;28;20212;-48
2023/11/13 01:51:49;;;;;;;4.83;4.43;;;11.80;73.50;;;;;;5008013;28;20440;-53
2023/11/13 01:54:17;;;;;;;4.53;4.13;;;11.80;73.20;;;;;;5006008;28;20194;-52
2023/11/13 01:56:43;;;;;;;4.80;4.40;;;11.70;73.50;;;;;;5005550;28;20479;-55
2023/11/13 01:59:15;;;;;;;4.60;4.20;;;11.80;73.40;;;;;;5001001;28;20468;-55
2023/11/13 02:01:41;;;;;;;4.23;3.67;;;11.90;73.50;;;;;;5002841;28;20453;-50
2023/11/13 02:04:06;;;;;;;5.03;4.57;;;12.00;72.90;;;;;;5003089;28;20801;-48
2023/11/13 02:06:32;;;;;;;4.23;3.83;;;12.10;72.40;;;;;;5005470;28;20428;-47
2023/11/13 02:08:58;;;;;;;5.43;4.50;;;12.10;72.10;;;;;;5004930;28;20214;-50
2023/11/13 02:11:25;;;;;;;4.30;3.90;;;12.00;71.90;;;;;;5003199;28;20774;-49
2023/11/13 02:13:53;;;;;;;3.73;3.40;;;11.90;72.60;;;;;;4999545;28;20217;-53
2023/11/13 02:16:19;;;;;;;3.60;3.30;;;11.80;73.60;;;;;;5006181;28;20477;-49
2023/11/13 02:18:45;;;;;;;3.47;3.17;;;11.80;73.70;;;;;;5001623;28;20461;-48
2023/11/13 02:21:10;;;;;;;3.37;3.07;;;11.90;74.10;;;;;;5002458;28;20190;-53
2023/11/13 02:23:36;;;;;;;3.80;3.40;;;12.00;74.00;;;;;;5005987;28;20220;-51
2023/11/13 02:26:09;;;;;;;3.90;2.83;;;12.10;73.90;;;;;;5004828;28;20662;-50
2023/11/13 02:28:35;;;;;;;3.70;2.83;;;12.30;73.40;;;;;;5006646;28;20217;-52
2023/11/13 02:31:01;;;;;;;3.60;3.30;;;12.30;73.30;;;;;;5005363;28;20494;-51
2023/11/13 02:33:26;;;;;;;3.80;3.40;;;12.40;73.20;;;;;;5005278;28;20184;-56
2023/11/13 02:35:52;;;;;;;3.50;3.03;;;12.50;73.20;;;;;;5004490;28;20223;-51
2023/11/13 02:38:17;;;;;;;3.73;3.37;;;12.60;73.30;;;;;;5004573;28;20296;-53
2023/11/13 02:40:43;;;;;;;3.70;3.40;;;12.60;73.20;;;;;;5003900;28;20190;-49
2023/11/13 02:43:08;;;;;;;3.30;3.00;;;12.60;73.40;;;;;;5006836;28;20193;-51
2023/11/13 02:45:34;;;;;;;2.80;2.60;;;12.70;73.60;;;;;;5004933;28;20192;-52
2023/11/13 02:47:59;;;;;;;3.30;2.83;;;12.70;73.80;;;;;;5007892;28;20578;-51
2023/11/13 02:50:25;;;;;;;3.63;3.10;;;12.80;74.00;;;;;;5003349;28;20638;-55
2023/11/13 02:52:51;;;;;;;3.50;2.60;;;12.90;74.10;;;;;;5008673;28;20198;-55
2023/11/13 02:55:16;;;;;;;3.03;2.73;;;12.90;74.00;;;;;;5010509;28;20230;-52
2023/11/13 02:57:42;;;;;;;3.00;2.80;;;13.00;73.90;;;;;;5006502;28;20193;-50
2023/11/13 03:00:10;;;;;;;4.20;3.10;;;13.00;73.70;;;;;;5009562;28;20214;-54
2023/11/13 03:02:36;;;;;;;5.17;4.67;;;13.10;73.80;;;;;;5007126;28;20444;-51
2023/11/13 03:05:02;;;;;;;4.30;3.90;;;13.10;74.10;;;;;;5009637;28;20448;-51
2023/11/13 03:07:27;;;;;;;4.67;4.00;;;13.10;73.80;;;;;;5007190;28;20459;-50
2023/11/13 03:09:54;;;;;;;4.60;3.77;;;13.10;73.50;;;;;;5008248;28;20255;-50
2023/11/13 03:12:21;;;;;;;4.90;3.80;;;13.10;73.10;;;;;;5004154;28;21452;-50
2023/11/13 03:14:47;;;;;;;4.47;3.50;;;13.00;74.60;;;;;;5006354;28;20441;-47
2023/11/13 03:17:13;;;;;;;5.40;3.53;;;12.90;74.10;;;;;;5006321;28;21281;-50
2023/11/13 03:19:39;;;;;;;3.77;3.47;;;12.80;73.80;;;;;;5001729;28;20468;-49
2023/11/13 03:22:05;;;;;;;3.70;3.40;;;12.80;74.20;;;;;;5005746;28;20261;-50
2023/11/13 03:24:30;;;;;;;3.70;3.40;;;12.90;74.30;;;;;;5009731;28;20669;-51
2023/11/13 03:26:56;;;;;;;3.80;3.40;;;13.00;73.60;;;;;;5009879;28;20478;-56
2023/11/13 03:29:21;;;;;;;3.03;2.83;;;13.00;73.90;;;;;;5006198;28;20206;-51
2023/11/13 03:31:47;;;;;;;2.87;2.57;;;13.00;74.10;;;;;;5003145;28;20190;-52
2023/11/13 03:34:12;;;;;;;3.93;2.80;;;12.70;77.40;;;;;;5007355;28;20190;-49
2023/11/13 03:36:38;;;;;;;5.40;2.20;;;12.70;78.30;;;;;;5006880;28;20229;-53
2023/11/13 03:39:04;;;;;;;2.23;2.03;;;12.80;78.50;;;;;;5005442;28;20205;-49
2023/11/13 03:41:32;;;;;;;2.90;2.50;;;13.00;78.40;;;;;;5006268;28;20839;-53
2023/11/13 03:44:00;;;;;;;2.50;2.30;;;13.10;78.70;;;;;;5003578;28;21035;-52
2023/11/13 03:46:26;;;;;;;3.20;2.90;;;13.20;78.70;;;;;;5003521;28;20895;-49
2023/11/13 03:48:52;;;;;;;4.10;2.17;;;13.10;79.20;;;;;;5006859;28;20460;-49
2023/11/13 03:51:17;;;;;;;3.70;2.13;;;13.20;79.90;;;;;;5006437;28;20448;-51
2023/11/13 03:53:43;;;;;;;2.47;2.27;;;13.10;80.90;;;;;;5004927;28;20190;-49
2023/11/13 03:56:08;;;;;;;3.27;2.93;;;13.20;80.50;;;;;;4986398;28;20217;-54
2023/11/13 03:58:34;;;;;;;3.10;2.80;;;13.40;80.00;;;;;;5005826;28;20202;-53
2023/11/13 04:01:00;;;;;;;3.63;3.33;;;13.30;79.90;;;;;;5007423;28;20223;-47
2023/11/13 04:03:25;;;;;;;3.23;2.87;;;13.50;79.50;;;;;;5006400;28;20213;-51
2023/11/13 04:05:51;;;;;;;4.50;3.60;;;13.40;79.40;;;;;;4991981;28;20922;-51
2023/11/13 04:08:17;;;;;;;3.53;2.90;;;13.50;79.30;;;;;;5007038;28;20200;-52
2023/11/13 04:10:42;;;;;;;4.33;3.20;;;13.70;78.30;;;;;;5002916;28;20198;-49
2023/11/13 04:13:08;;;;;;;3.17;2.97;;;13.80;77.50;;;;;;5007814;28;20194;-53
2023/11/13 04:15:33;;;;;;;2.93;2.70;;;13.90;76.40;;;;;;5005675;28;20221;-49
2023/11/13 04:17:59;;;;;;;4.63;3.00;;;13.90;76.40;;;;;;5007186;28;20265;-53
2023/11/13 04:20:24;;;;;;;3.07;2.77;;;14.00;75.90;;;;;;5004642;28;20240;-51
2023/11/13 04:22:50;;;;;;;6.10;2.93;;;14.00;75.70;;;;;;5008719;28;20204;-48
2023/11/13 04:25:16;;;;;;;4.60;2.30;;;14.10;75.70;;;;;;5009040;28;20224;-48
2023/11/13 04:27:42;;;;;;;2.37;2.10;;;14.00;76.50;;;;;;5004569;28;20182;-50
2023/11/13 04:30:08;;;;;;;4.00;2.40;;;14.10;77.30;;;;;;5004899;28;20469;-55
2023/11/13 04:32:33;;;;;;;3.67;2.17;;;14.20;75.90;;;;;;5005345;28;20206;-49
2023/11/13 04:34:59;;;;;;;3.00;2.50;;;14.30;75.40;;;;;;5006133;28;20483;-52
2023/11/13 04:37:25;;;;;;;2.60;2.40;;;14.30;75.40;;;;;;5005832;28;20221;-49
2023/11/13 04:39:50;;;;;;;5.33;2.50;;;14.40;75.40;;;;;;5006011;28;20853;-51
2023/11/13 04:42:16;;;;;;;3.60;2.33;;;14.40;75.60;;;;;;5003334;28;20260;-49
2023/11/13 04:44:41;;;;;;;4.03;1.80;;;14.30;77.30;;;;;;5007090;28;20186;-48
2023/11/13 04:47:08;;;;;;;3.83;2.07;;;14.20;78.50;;;;;;5006752;28;20198;-54
2023/11/13 04:49:35;;;;;;;3.03;1.80;;;14.30;78.60;;;;;;5007399;28;20289;-51
2023/11/13 04:52:01;;;;;;;2.73;1.47;;;14.30;78.90;;;;;;5005374;28;20437;-51
2023/11/13 04:54:26;;;;;;;3.80;2.57;;;14.30;79.30;;;;;;5006597;28;20429;-48
2023/11/13 04:56:52;;;;;;;5.40;2.10;;;14.10;80.30;;;;;;5005137;28;20469;-49
2023/11/13 04:59:18;;;;;;;4.60;2.10;;;14.10;80.90;;;;;;5007997;28;20681;-48
2023/11/13 05:01:43;;;;;;;3.37;2.10;;;14.10;80.20;;;;;;5007107;28;20441;-53
2023/11/13 05:04:09;;;;;;;4.70;1.80;;;14.10;80.20;;;;;;5007658;28;20210;-50
2023/11/13 05:06:35;;;;;;;3.43;1.53;;;14.00;80.60;;;;;;5005685;28;20218;-48
2023/11/13 05:09:04;;;;;;;4.97;1.87;;;14.00;80.60;;;;;;5006941;28;20218;-50
2023/11/13 05:11:30;;;;;;;3.97;2.00;;;14.00;81.10;;;;;;5005358;28;20440;-51
2023/11/13 05:13:56;;;;;;;3.97;1.40;;;14.10;79.90;;;;;;5006587;28;20443;-53
2023/11/13 05:16:23;;;;;;;5.73;1.70;;;14.20;80.00;;;;;;5004548;28;20686;-55
2023/11/13 05:18:51;;;;;;;6.67;2.30;;;14.20;79.60;;;;;;5005708;28;20468;-49
2023/11/13 05:21:17;;;;;;;6.50;1.60;;;14.50;78.60;;;;;;5002508;28;20468;-51
2023/11/13 05:23:43;;;;;;;3.33;1.50;;;14.50;77.90;;;;;;5005905;28;20444;-50
2023/11/13 05:26:08;;;;;;;4.07;1.70;;;14.50;77.90;;;;;;5005263;28;20511;-51
2023/11/13 05:28:34;;;;;;;6.50;1.50;;;14.70;77.40;;;;;;5002662;28;20289;-53
2023/11/13 05:31:01;;;;;;;4.03;1.50;;;14.70;77.00;;;;;;5005432;28;20194;-52
2023/11/13 05:33:27;;;;;;;3.30;1.90;;;14.80;76.30;;;;;;5005419;28;20284;-50
2023/11/13 05:35:53;;;;;;;1.83;1.57;;;14.70;77.40;;;;;;5005312;28;20473;-49
2023/11/13 05:38:19;;;;;;;3.70;2.00;;;14.70;77.50;;;;;;5000718;28;20441;-51
2023/11/13 05:40:45;;;;;;;4.13;1.70;;;14.60;77.90;;;;;;5004724;28;20189;-52
2023/11/13 05:43:11;;;;;;;4.90;1.67;;;14.70;77.50;;;;;;5007425;28;20206;-53
2023/11/13 05:45:37;;;;;;;5.10;1.93;;;14.80;77.10;;;;;;5008390;28;20955;-53
2023/11/13 05:48:03;;;;;;;3.20;2.10;;;15.00;76.00;;;;;;5008104;28;20463;-50
2023/11/13 05:50:29;;;;;;;5.80;1.53;;;15.00;75.50;;;;;;5006708;28;20220;-51
2023/11/13 05:52:55;;;;;;;4.50;2.10;;;15.00;75.60;;;;;;5005352;28;20440;-50
2023/11/13 05:55:22;;;;;;;4.60;2.00;;;14.90;75.50;;;;;;5002623;28;20217;-55
2023/11/13 05:57:48;;;;;;;10.13;2.77;;;14.80;75.50;;;;;;5005078;28;20260;-56
2023/11/13 06:00:16;;;;;;;10.80;2.50;;;14.70;75.50;;;;;;5003528;28;20449;-54
2023/11/13 06:02:42;;;;;;;8.37;3.13;;;14.80;75.90;;;;;;5003044;28;20441;-49
2023/11/13 06:05:08;;;;;;;6.50;2.20;;;14.80;75.30;;;;;;5004396;28;20438;-56
2023/11/13 06:07:36;;;;;;;6.03;3.20;;;14.90;75.20;;;;;;5002232;28;20456;-51
2023/11/13 06:10:10;;;;;;;10.87;2.60;;;14.90;74.40;;;;;;5004378;28;20465;-52
2023/11/13 06:12:39;;;;;;;6.70;2.70;;;15.00;74.10;;;;;;5003939;28;20448;-51
2023/11/13 06:15:11;;;;;;;11.83;2.50;;;14.90;73.60;;;;;;5006447;28;20429;-48
2023/11/13 06:17:37;;;;;;;8.43;3.07;;;15.00;73.70;;;;;;4998560;28;20544;-49
2023/11/13 06:20:03;;;;;;;9.47;2.50;;;15.20;73.00;;;;;;5000954;28;20476;-49
2023/11/13 06:22:28;;;;;;;8.20;2.83;;;15.30;72.70;;;;;;5003423;28;20445;-50
2023/11/13 06:24:54;;;;;;;5.90;2.70;;;15.40;71.60;;;;;;5005808;28;20201;-48
2023/11/13 06:27:20;;;;;;;10.97;2.50;;;15.60;71.40;;;;;;5005555;28;20696;-48
2023/11/13 06:29:45;;;;;;;6.77;1.93;;;15.70;70.90;;;;;;5007843;28;20452;-50
2023/11/13 06:32:11;;;;;;;5.47;2.60;;;15.80;70.50;;;;;;5004966;28;20212;-52
2023/11/13 06:34:36;;;;;;;6.33;2.20;;;15.90;70.20;;;;;;5006320;28;20643;-50
2023/11/13 06:37:02;;;;;;;7.57;3.00;;;16.00;69.90;;;;;;5006078;28;20263;-51
2023/11/13 06:39:28;;;;;;;5.27;2.37;;;16.10;69.50;;;;;;5002175;28;20208;-54
2023/11/13 06:41:53;;;;;;;8.43;2.30;;;16.30;69.10;;;;;;5005061;28;20198;-50
2023/11/13 06:44:19;;;;;;;6.83;2.40;;;16.40;68.30;;;;;;5003992;28;20198;-50
2023/11/13 06:46:45;;;;;;;12.40;3.27;;;16.60;67.70;;;;;;4999158;28;20245;-54
2023/11/13 06:49:11;;;;;;;6.60;3.27;;;16.60;67.00;;;;;;5004381;28;20470;-54
2023/11/13 06:51:37;;;;;;;8.30;3.70;;;16.70;66.80;;;;;;5006074;28;20445;-50
2023/11/13 06:54:03;;;;;;;15.00;3.03;;;16.80;66.40;;;;;;5007304;28;20194;-51
2023/11/13 06:56:32;;;;;;;9.00;3.83;;;16.80;66.40;;;;;;5006403;28;20791;-52
2023/11/13 06:58:58;;;;;;;10.23;3.23;;;16.70;66.40;;;;;;5007196;28;20476;-50
2023/11/13 07:01:25;;;;;;;12.53;2.93;;;16.80;66.40;;;;;;5006514;28;20494;-51
2023/11/13 07:03:51;;;;;;;11.07;2.60;;;16.90;66.10;;;;;;5006063;28;20243;-52
2023/11/13 07:06:17;;;;;;;5.43;2.20;;;16.90;65.70;;;;;;5005208;28;20445;-52
2023/11/13 07:08:42;;;;;;;7.33;2.73;;;17.00;65.40;;;;;;5009205;28;20975;-53
2023/11/13 07:11:10;;;;;;;9.37;2.97;;;17.00;65.10;;;;;;5009739;28;20182;-55
2023/11/13 07:13:39;;;;;;;6.40;2.17;;;17.10;64.90;;;;;;5010850;28;20542;-49
2023/11/13 07:16:07;;;;;;;8.13;3.80;;;17.10;64.70;;;;;;5007741;28;21030;-50
2023/11/13 07:18:33;;;;;;;7.53;2.40;;;17.20;64.60;;;;;;5010209;28;20622;-49
2023/11/13 07:20:59;;;;;;;5.30;3.70;;;17.20;64.70;;;;;;5008709;28;20484;-50
2023/11/13 07:23:24;;;;;;;9.50;5.03;;;17.20;64.80;;;;;;5009724;28;20209;-49
2023/11/13 07:25:50;;;;;;;7.47;4.37;;;17.20;64.60;;;;;;5008019;28;20472;-49
2023/11/13 07:28:17;;;;;;;7.10;4.23;;;17.20;64.60;;;;;;5007438;28;20181;-49
2023/11/13 07:30:43;;;;;;;12.50;3.90;;;17.10;64.90;;;;;;5009450;28;20225;-49
2023/11/13 07:33:09;;;;;;;6.77;3.40;;;17.10;65.30;;;;;;5007707;28;20442;-50
2023/11/13 07:35:37;;;;;;;5.37;3.30;;;17.10;65.60;;;;;;5004712;28;21328;-55
2023/11/13 07:38:07;;;;;;;7.07;3.20;;;17.10;66.00;;;;;;5011110;28;20265;-51
2023/11/13 07:40:33;;;;;;;5.83;2.50;;;17.10;66.00;;;;;;5009976;28;20839;-52
2023/11/13 07:42:58;;;;;;;12.60;2.70;;;17.10;66.00;;;;;;5010304;28;20548;-52
2023/11/13 07:45:25;;;;;;;7.93;3.43;;;17.10;66.00;;;;;;5010432;28;20425;-51
2023/11/13 07:47:51;;;;;;;5.60;3.80;;;17.00;66.30;;;;;;5010479;28;20261;-53
2023/11/13 07:50:16;;;;;;;11.20;3.00;;;17.00;66.70;;;;;;5006661;28;20879;-53
2023/11/13 07:52:44;;;;;;;9.77;4.97;;;17.00;66.90;;;;;;5010268;28;20276;-48
2023/11/13 07:55:14;;;;;;;13.90;8.07;;;17.10;67.00;;;;;;5010302;28;20555;-53
2023/11/13 07:57:41;;;;;;;10.23;7.53;;;17.10;66.90;;;;;;5009598;28;20464;-52
2023/11/13 08:00:10;;;;;;;12.30;8.10;;;17.10;66.60;;;;;;5010440;28;20810;-50
2023/11/13 08:02:37;;;;;;;11.10;6.10;;;17.10;66.70;;;;;;5010044;28;20495;-55
2023/11/13 08:05:03;;;;;;;11.93;4.70;;;17.10;66.90;;;;;;5008483;28;20441;-48
2023/11/13 08:07:29;;;;;;;12.00;4.80;;;17.00;67.10;;;;;;5008686;28;20515;-52
2023/11/13 08:09:55;;;;;;;7.87;5.23;;;17.00;67.30;;;;;;5010132;28;20206;-54
2023/11/13 08:12:20;;;;;;;8.80;4.20;;;16.90;67.60;;;;;;5009742;28;20441;-54
2023/11/13 08:14:49;;;;;;;11.60;5.10;;;16.80;68.30;;;;;;5010083;28;20182;-51
2023/11/13 08:17:14;;;;;;;11.23;5.50;;;16.60;69.20;;;;;;5008774;28;20214;-55
2023/11/13 08:19:41;;;;;;;13.87;4.40;;;16.40;70.40;;;;;;5009706;28;20445;-57
2023/11/13 08:22:07;;;;;;;7.27;4.20;;;16.20;71.30;;;;;;5008254;28;20244;-50
2023/11/13 08:24:32;;;;;;;12.70;4.70;;;16.20;73.10;;;;;;5008586;28;20928;-49
2023/11/13 08:26:58;;;;;;;14.40;4.20;;;16.30;71.80;;;;;;5008186;28;20251;-52
2023/11/13 08:29:25;;;;;;;8.53;3.83;;;16.40;71.30;;;;;;5008053;28;20213;-53
2023/11/13 08:31:51;;;;;;;14.23;4.80;;;16.40;70.90;;;;;;5008388;28;20745;-52
2023/11/13 08:34:16;;;;;;;12.10;4.27;;;16.40;71.00;;;;;;5006782;28;20417;-49
2023/11/13 08:36:44;;;;;;;10.60;4.10;;;16.20;71.40;;;;;;5008637;28;20832;-49
2023/11/13 08:39:10;;;;;;;8.10;3.03;;;16.20;71.60;;;;;;5009015;28;20205;-49
2023/11/13 08:41:36;;;;;;;13.40;3.30;;;16.30;71.60;;;;;;5008676;28;20453;-50
2023/11/13 08:44:03;;;;;;;7.13;3.30;;;16.20;71.60;;;;;;5009487;28;20178;-48
2023/11/13 08:46:30;;;;;;;11.50;2.77;;;16.00;72.80;;;;;;5007954;28;20528;-48
2023/11/13 08:48:56;;;;;;;10.30;2.53;;;15.80;73.20;;;;;;5009098;28;20849;-50
2023/11/13 08:51:28;;;;;;;7.73;2.97;;;15.70;73.80;;;;;;5007645;28;20508;-51
2023/11/13 08:53:59;;;;;;;5.50;2.20;;;15.70;73.50;;;;;;5005991;28;20448;-49
2023/11/13 08:56:26;;;;;;;4.53;2.93;;;15.70;73.80;;;;;;5006141;28;20568;-49
2023/11/13 08:58:53;;;;;;;8.10;2.70;;;15.70;73.70;;;;;;5005963;28;20572;-53
2023/11/13 09:01:25;;;;;;;5.87;2.83;;;15.80;73.00;;;;;;5001184;28;20476;-48
2023/11/13 09:03:51;;;;;;;6.43;2.70;;;15.80;72.80;;;;;;5005601;28;20503;-48
2023/11/13 09:06:17;;;;;;;4.67;2.80;;;15.30;74.90;;;;;;5006110;28;20421;-48
2023/11/13 09:08:43;;;;;;;6.50;3.10;;;15.40;75.50;;;;;;5005876;28;20469;-48
2023/11/13 09:11:09;;;;;;;5.23;2.90;;;15.60;74.80;;;;;;5007602;28;20197;-52
2023/11/13 09:13:34;;;;;;;7.47;2.90;;;15.80;73.90;;;;;;5008172;28;20197;-52
2023/11/13 09:16:04;;;;;;;6.37;3.00;;;15.70;73.40;;;;;;5007535;28;20484;-49
2023/11/13 09:18:30;;;;;;;7.83;2.67;;;15.60;74.10;;;;;;5006665;28;20213;-51
2023/11/13 09:20:56;;;;;;;8.40;2.93;;;15.60;74.00;;;;;;5007971;28;20545;-50
2023/11/13 09:23:22;;;;;;;6.40;2.77;;;15.60;73.60;;;;;;5001692;28;20229;-48
2023/11/13 09:25:47;;;;;;;9.87;2.80;;;15.60;73.00;;;;;;5009364;28;20197;-48
2023/11/13 09:28:13;;;;;;;8.37;3.13;;;15.70;73.40;;;;;;5008099;28;20428;-48
2023/11/13 09:30:39;;;;;;;11.37;3.23;;;15.50;73.40;;;;;;5006836;28;20197;-50
2023/11/13 09:33:08;;;;;;;6.80;2.30;;;15.50;73.60;;;;;;5006097;28;20193;-48
2023/11/13 09:35:34;;;;;;;4.83;2.70;;;15.60;73.60;;;;;;5006945;28;20480;-48
2023/11/13 09:38:01;;;;;;;8.83;2.57;;;15.70;73.10;;;;;;5007253;28;20594;-48
2023/11/13 09:40:29;;;;;;;9.10;2.90;;;15.80;72.10;;;;;;5004336;28;20178;-51
2023/11/13 09:43:06;;;;;;;7.70;2.60;;;15.80;71.30;;;;;;5007013;28;20878;-52
2023/11/13 09:45:32;;;;;;;9.40;2.57;;;15.40;73.40;;;;;;5001091;28;20456;-48
2023/11/13 09:48:05;;;;;;;7.07;2.97;;;15.20;74.70;;;;;;5006575;28;20908;-48
2023/11/13 09:50:31;;;;;;;9.03;3.10;;;15.30;74.50;;;;;;4999391;28;20448;-51
2023/11/13 09:52:59;;;;;;;4.63;2.60;;;15.30;74.30;;;;;;5005948;28;20495;-49
2023/11/13 09:55:26;;;;;;;4.87;2.90;;;15.20;75.30;;;;;;4999918;28;20476;-48
2023/11/13 09:57:52;;;;;;;6.23;3.90;;;15.30;75.50;;;;;;5003766;28;20540;-53
2023/11/13 10:00:23;;;;;;;7.80;3.40;;;15.00;76.30;;;;;;5001949;28;21482;-52
2023/11/13 10:02:51;;;;;;;12.27;3.40;;;14.90;77.30;;;;;;5001299;28;21116;-52
2023/11/13 10:05:18;;;;;;;7.83;2.30;;;14.70;78.70;;;;;;5001514;28;20436;-47
2023/11/13 10:07:55;;;;;;;6.00;2.70;;;14.70;79.80;;;;;;5007372;28;20425;-48
2023/11/13 10:10:23;;;;;;;6.87;3.37;;;14.90;79.20;;;;;;5007170;28;20468;-48
2023/11/13 10:12:54;;;;;;;6.40;2.77;;;15.20;77.80;;;;;;5003046;28;20520;-49
2023/11/13 10:15:27;;;;;;;2.67;2.17;;;15.30;76.60;;;;;;5008206;28;20471;-49
2023/11/13 10:17:56;;;;;;;4.30;2.73;;;15.20;76.50;;;;;;5006535;28;20433;-53
2023/11/13 10:20:22;;;;;;;3.87;2.37;;;15.10;77.90;;;;;;5003608;28;20972;-55
2023/11/13 10:23:06;;;;;;;6.50;2.23;;;15.00;78.40;;;;;;5006506;28;20452;-51
2023/11/13 10:25:59;;;;;;;3.27;2.00;;;14.80;79.80;;;;;;5004773;28;20182;-49
2023/11/13 10:28:36;;;;;;;8.50;2.40;;;14.80;81.00;;;;;;5006279;28;20444;-48
2023/11/13 10:31:04;;;;;;;5.77;1.93;;;15.00;80.30;;;;;;5007597;28;20431;-56
2023/11/13 10:33:30;;;;;;;7.30;3.00;;;15.30;78.80;;;;;;4999521;28;20490;-56
2023/11/13 10:36:06;;;;;;;8.77;2.40;;;15.30;78.80;;;;;;5003808;28;20496;-57
2023/11/13 10:38:47;;;;;;;4.20;1.60;;;15.40;78.70;;;;;;5006807;28;20478;-48
2023/11/13 10:41:19;;;;;;;3.33;1.80;;;15.50;78.10;;;;;;5003885;28;20495;-49
2023/11/13 10:43:45;;;;;;;3.80;2.17;;;15.60;78.00;;;;;;4990951;28;20548;-52
2023/11/13 10:46:25;;;;;;;5.23;2.07;;;15.70;77.40;;;;;;4991632;28;20455;-51
2023/11/13 10:48:51;;;;;;;5.47;2.23;;;15.70;77.20;;;;;;4998454;28;20675;-51
2023/11/13 10:51:18;;;;;;;7.00;2.90;;;15.90;76.80;;;;;;5007333;28;20480;-50
2023/11/13 10:53:47;;;;;;;5.50;1.87;;;15.90;77.20;;;;;;5005638;28;20193;-49
2023/11/13 10:56:13;;;;;;;3.70;1.97;;;15.90;77.20;;;;;;5006377;28;20530;-48
2023/11/13 10:58:40;;;;;;;5.17;1.80;;;16.00;77.00;;;;;;5010330;28;21062;-52
2023/11/13 11:01:15;;;;;;;3.93;1.87;;;16.20;77.00;;;;;;5006527;28;20433;-52
2023/11/13 11:03:45;;;;;;;4.07;1.90;;;16.20;76.90;;;;;;5008537;28;20444;-52
2023/11/13 11:06:16;;;;;;;3.00;2.17;;;16.20;77.30;;;;;;5003868;28;20799;-48
2023/11/13 11:08:45;;;;;;;6.37;2.00;;;16.20;77.30;;;;;;5007612;28;20614;-53
2023/11/13 11:11:13;;;;;;;5.10;2.20;;;16.30;77.00;;;;;;5008980;28;20448;-51
2023/11/13 11:13:43;;;;;;;6.50;2.03;;;16.50;76.70;;;;;;5005719;28;20495;-55
2023/11/13 11:16:21;;;;;;;6.20;1.90;;;16.60;76.30;;;;;;5006942;28;20979;-53
2023/11/13 11:19:05;;;;;;;5.93;2.50;;;16.60;76.60;;;;;;5006854;28;20951;-48
2023/11/13 11:22:00;;;;;;;6.83;2.43;;;16.70;77.00;;;;;;5007116;28;20614;-49
2023/11/13 11:24:38;;;;;;;9.23;2.43;;;16.30;78.20;;;;;;5007236;28;20447;-54
2023/11/13 11:27:04;;;;;;;2.70;2.00;;;16.40;79.20;;;;;;5008058;28;20464;-48
2023/11/13 11:29:34;;;;;;;4.17;2.33;;;16.40;80.00;;;;;;5006960;28;20456;-52
2023/11/13 11:32:10;;;;;;;4.50;2.27;;;16.50;80.40;;;;;;5005085;28;20457;-50
2023/11/13 11:34:39;;;;;;;5.70;3.27;;;16.40;81.20;;;;;;5009867;28;20456;-56
2023/11/13 11:37:19;;;;;;;2.90;2.20;;;16.40;81.90;;;;;;5008233;28;20480;-51
2023/11/13 11:40:03;;;;;;;4.83;2.17;;;16.30;83.00;;;;;;5008663;28;20468;-56
2023/11/13 11:42:29;;;;;;;5.00;1.90;;;16.20;84.70;;;;;;5006026;28;20466;-55
2023/11/13 11:44:54;;;;;;;5.90;2.87;;;16.40;84.40;;;;;;5006567;28;20452;-53
2023/11/13 11:47:27;;;;;;;7.23;2.57;;;16.50;83.80;;;;;;5004196;28;20194;-53
2023/11/13 11:49:58;;;;;;;4.67;1.93;;;16.60;84.30;;;;;;5009668;28;20206;-49
2023/11/13 11:52:52;;;;;;;5.00;2.37;;;16.40;85.20;;;;;;5005914;28;20841;-51
2023/11/13 11:55:22;;;;;;;4.27;2.37;;;16.50;85.30;;;;;;5005853;28;20451;-50
2023/11/13 11:57:49;;;;;;;2.77;1.93;;;16.40;86.10;;;;;;5006041;28;20464;-51
2023/11/13 12:00:20;;;;;;;5.40;2.40;;;16.60;85.50;;;;;;5008468;28;20429;-54
2023/11/13 12:02:53;;;;;;;6.57;2.20;;;16.80;85.40;;;;;;5005255;28;20468;-53
2023/11/13 12:05:19;;;;;;;3.30;2.53;;;16.90;84.20;;;;;;5006058;28;21271;-56
2023/11/13 12:07:46;;;;;;;4.47;1.93;;;16.90;83.80;;;;;;5009519;28;20425;-51
2023/11/13 12:10:12;;;;;;;8.60;3.47;;;16.90;84.00;;;;;;5004545;28;20472;-54
2023/11/13 12:12:41;;;;;;;7.87;3.13;;;17.00;83.80;;;;;;5008376;28;20516;-54
2023/11/13 12:15:08;;;;;;;10.10;2.93;;;17.00;83.50;;;;;;5004163;28;20186;-51
2023/11/13 12:17:38;;;;;;;4.67;2.67;;;17.20;83.10;;;;;;5006078;28;20445;-50
2023/11/13 12:20:06;;;;;;;6.27;2.13;;;17.30;82.40;;;;;;5009652;28;20521;-48
2023/11/13 12:22:41;;;;;;;5.27;3.53;;;17.20;82.70;;;;;;5004425;28;20627;-51
2023/11/13 12:25:08;;;;;;;7.50;2.90;;;17.20;82.20;;;;;;5006581;28;20947;-52
2023/11/13 12:27:36;;;;;;;6.50;2.40;;;17.20;82.40;;;;;;5001560;28;20803;-48
2023/11/13 12:30:07;;;;;;;5.17;2.67;;;17.30;81.90;;;;;;5005390;28;20491;-48
2023/11/13 12:32:33;;;;;;;5.93;2.50;;;17.20;82.40;;;;;;5001726;28;20445;-48
2023/11/13 12:34:59;;;;;;;4.80;2.47;;;17.30;82.40;;;;;;5004802;28;20962;-51
2023/11/13 12:37:27;;;;;;;5.17;2.40;;;17.30;82.20;;;;;;5005488;28;20491;-50
2023/11/13 12:39:58;;;;;;;6.33;2.57;;;17.30;82.30;;;;;;5005081;28;20473;-48
2023/11/13 12:42:28;;;;;;;4.50;2.30;;;17.20;82.40;;;;;;5005481;28;20466;-49
2023/11/13 12:44:55;;;;;;;4.90;2.43;;;17.40;81.80;;;;;;5008199;28;20975;-48
2023/11/13 12:47:21;;;;;;;5.13;2.27;;;17.40;81.80;;;;;;5006230;28;20444;-51